sensor_id;sensor_type;location;lat;lon;timestamp;pressure;altitude;pressure_sealevel;temperature;humidity
42859;BME280;28505;56.970;40.998;2023-12-04T00:02:08;98641.22;;;-7.54;100.00
42859;BME280;28505;56.970;40.998;2023-12-04T00:07:30;98637.09;;;-7.36;100.00
42859;BME280;28505;56.970;40.998;2023-12-04T00:12:54;98638.81;;;-7.55;100.00
42859;BME280;28505;56.970;40.998;2023-12-04T00:18:19;98632.81;;;-7.69;100.00
42859;BME280;28505;56.970;40.998;2023-12-04T00:23:42;98629.50;;;-7.44;100.00
42859;BME280;28505;56.970;40.998;2023-12-04T00:29:04;98639.47;;;-7.73;100.00
42859;BME280;28505;56.970;40.998;2023-12-04T00:34:26;98636.34;;;-7.50;100.00
42859;BME280;28505;56.970;40.998;2023-12-04T00:39:48;98631.38;;;-7.58;100.00
42859;BME280;28505;56.970;40.998;2023-12-04T00:45:11;98624.81;;;-7.81;100.00
42859;BME280;28505;56.970;40.998;2023-12-04T00:50:34;98633.56;;;-7.48;100.00
42859;BME280;28505;56.970;40.998;2023-12-04T00:56:01;98624.78;;;-7.29;100.00
42859;BME280;28505;56.970;40.998;2023-12-04T01:01:26;98641.41;;;-7.17;100.00
42859;BME280;28505;56.970;40.998;2023-12-04T01:06:48;98633.44;;;-7.73;100.00
42859;BME280;28505;56.970;40.998;2023-12-04T01:12:10;98628.72;;;-7.51;100.00
42859;BME280;28505;56.970;40.998;2023-12-04T01:17:32;98632.72;;;-7.49;100.00
42859;BME280;28505;56.970;40.998;2023-12-04T01:22:55;98631.28;;;-7.83;100.00
42859;BME280;28505;56.970;40.998;2023-12-04T01:28:17;98646.91;;;-7.25;100.00
42859;BME280;28505;56.970;40.998;2023-12-04T01:33:39;98640.84;;;-7.64;100.00
42859;BME280;28505;56.970;40.998;2023-12-04T01:39:01;98642.09;;;-7.73;100.00
42859;BME280;28505;56.970;40.998;2023-12-04T01:44:25;98645.41;;;-7.53;100.00
42859;BME280;28505;56.970;40.998;2023-12-04T01:49:47;98639.28;;;-7.71;100.00
42859;BME280;28505;56.970;40.998;2023-12-04T01:55:10;98642.66;;;-7.19;100.00
42859;BME280;28505;56.970;40.998;2023-12-04T02:00:32;98638.56;;;-7.09;100.00
42859;BME280;28505;56.970;40.998;2023-12-04T02:05:59;98625.78;;;-7.30;100.00
42859;BME280;28505;56.970;40.998;2023-12-04T02:11:23;98640.72;;;-7.37;100.00
42859;BME280;28505;56.970;40.998;2023-12-04T02:16:46;98642.78;;;-7.08;100.00
42859;BME280;28505;56.970;40.998;2023-12-04T02:22:09;98650.59;;;-7.39;100.00
42859;BME280;28505;56.970;40.998;2023-12-04T02:27:40;98651.53;;;-7.27;100.00
42859;BME280;28505;56.970;40.998;2023-12-04T02:33:07;98654.88;;;-7.45;100.00
42859;BME280;28505;56.970;40.998;2023-12-04T02:38:30;98655.59;;;-7.83;100.00
42859;BME280;28505;56.970;40.998;2023-12-04T02:43:53;98658.06;;;-7.43;100.00
42859;BME280;28505;56.970;40.998;2023-12-04T02:49:15;98657.69;;;-7.46;100.00
42859;BME280;28505;56.970;40.998;2023-12-04T02:54:37;98662.56;;;-7.57;100.00
42859;BME280;28505;56.970;40.998;2023-12-04T03:00:00;98681.06;;;-7.51;100.00
42859;BME280;28505;56.970;40.998;2023-12-04T03:05:25;98681.84;;;-7.44;100.00
42859;BME280;28505;56.970;40.998;2023-12-04T03:10:48;98668.22;;;-7.60;100.00
42859;BME280;28505;56.970;40.998;2023-12-04T03:16:17;98673.44;;;-7.60;100.00
42859;BME280;28505;56.970;40.998;2023-12-04T03:21:40;98685.13;;;-7.62;100.00
42859;BME280;28505;56.970;40.998;2023-12-04T03:27:02;98675.78;;;-7.96;100.00
42859;BME280;28505;56.970;40.998;2023-12-04T03:32:24;98683.84;;;-8.25;100.00
42859;BME280;28505;56.970;40.998;2023-12-04T03:37:46;98689.34;;;-7.55;100.00
42859;BME280;28505;56.970;40.998;2023-12-04T03:43:08;98690.56;;;-7.64;100.00
42859;BME280;28505;56.970;40.998;2023-12-04T03:48:31;98688.97;;;-7.65;100.00
42859;BME280;28505;56.970;40.998;2023-12-04T03:53:53;98692.94;;;-8.27;100.00
42859;BME280;28505;56.970;40.998;2023-12-04T03:59:15;98706.09;;;-7.75;100.00
42859;BME280;28505;56.970;40.998;2023-12-04T04:04:38;98712.50;;;-7.58;100.00
42859;BME280;28505;56.970;40.998;2023-12-04T04:10:00;98710.81;;;-8.11;100.00
42859;BME280;28505;56.970;40.998;2023-12-04T04:15:23;98717.38;;;-7.88;100.00
42859;BME280;28505;56.970;40.998;2023-12-04T04:20:44;98726.63;;;-7.79;100.00
42859;BME280;28505;56.970;40.998;2023-12-04T04:26:07;98723.47;;;-7.94;100.00
42859;BME280;28505;56.970;40.998;2023-12-04T04:31:29;98726.72;;;-8.39;100.00
42859;BME280;28505;56.970;40.998;2023-12-04T04:36:52;98730.91;;;-7.85;100.00
42859;BME280;28505;56.970;40.998;2023-12-04T04:42:14;98731.84;;;-7.66;100.00
42859;BME280;28505;56.970;40.998;2023-12-04T04:47:37;98747.22;;;-8.16;100.00
42859;BME280;28505;56.970;40.998;2023-12-04T04:53:00;98755.25;;;-8.44;100.00
42859;BME280;28505;56.970;40.998;2023-12-04T04:58:22;98753.16;;;-7.62;100.00
42859;BME280;28505;56.970;40.998;2023-12-04T05:03:44;98759.06;;;-7.80;100.00
42859;BME280;28505;56.970;40.998;2023-12-04T05:09:07;98767.66;;;-7.66;100.00
42859;BME280;28505;56.970;40.998;2023-12-04T05:14:30;98778.19;;;-8.19;100.00
42859;BME280;28505;56.970;40.998;2023-12-04T05:19:51;98788.44;;;-8.25;100.00
42859;BME280;28505;56.970;40.998;2023-12-04T05:25:14;98796.28;;;-7.91;100.00
42859;BME280;28505;56.970;40.998;2023-12-04T05:30:36;98822.03;;;-7.68;100.00
42859;BME280;28505;56.970;40.998;2023-12-04T05:35:59;98812.38;;;-7.81;100.00
42859;BME280;28505;56.970;40.998;2023-12-04T05:41:24;98837.72;;;-7.62;100.00
42859;BME280;28505;56.970;40.998;2023-12-04T05:46:46;98847.38;;;-7.62;100.00
42859;BME280;28505;56.970;40.998;2023-12-04T05:52:10;98850.19;;;-8.23;100.00
42859;BME280;28505;56.970;40.998;2023-12-04T05:57:32;98850.59;;;-8.00;100.00
42859;BME280;28505;56.970;40.998;2023-12-04T06:02:54;98857.06;;;-7.89;100.00
42859;BME280;28505;56.970;40.998;2023-12-04T06:08:16;98866.00;;;-8.65;100.00
42859;BME280;28505;56.970;40.998;2023-12-04T06:13:39;98865.03;;;-8.24;100.00
42859;BME280;28505;56.970;40.998;2023-12-04T06:19:02;98875.88;;;-8.47;100.00
42859;BME280;28505;56.970;40.998;2023-12-04T06:24:26;98876.50;;;-8.38;100.00
42859;BME280;28505;56.970;40.998;2023-12-04T06:29:48;98892.06;;;-7.84;100.00
42859;BME280;28505;56.970;40.998;2023-12-04T06:35:13;98903.34;;;-7.90;100.00
42859;BME280;28505;56.970;40.998;2023-12-04T06:40:40;98894.44;;;-8.09;100.00
42859;BME280;28505;56.970;40.998;2023-12-04T06:46:04;98906.88;;;-8.24;100.00
42859;BME280;28505;56.970;40.998;2023-12-04T06:51:27;98919.78;;;-8.09;100.00
42859;BME280;28505;56.970;40.998;2023-12-04T06:56:50;98934.09;;;-7.98;100.00
42859;BME280;28505;56.970;40.998;2023-12-04T07:02:12;98941.16;;;-7.92;100.00
42859;BME280;28505;56.970;40.998;2023-12-04T07:07:34;98937.97;;;-7.88;100.00
42859;BME280;28505;56.970;40.998;2023-12-04T07:12:57;98933.13;;;-7.84;100.00
42859;BME280;28505;56.970;40.998;2023-12-04T07:18:19;98952.72;;;-8.41;100.00
42859;BME280;28505;56.970;40.998;2023-12-04T07:23:41;98962.63;;;-8.17;100.00
42859;BME280;28505;56.970;40.998;2023-12-04T07:29:04;98970.47;;;-8.17;100.00
42859;BME280;28505;56.970;40.998;2023-12-04T07:34:26;98984.69;;;-7.65;100.00
42859;BME280;28505;56.970;40.998;2023-12-04T07:39:49;98986.91;;;-8.30;100.00
42859;BME280;28505;56.970;40.998;2023-12-04T07:45:12;98990.25;;;-8.56;100.00
42859;BME280;28505;56.970;40.998;2023-12-04T07:50:35;98992.00;;;-8.08;100.00
42859;BME280;28505;56.970;40.998;2023-12-04T07:56:03;98991.31;;;-8.37;100.00
42859;BME280;28505;56.970;40.998;2023-12-04T08:01:25;99003.00;;;-8.33;100.00
42859;BME280;28505;56.970;40.998;2023-12-04T08:06:48;99006.91;;;-8.57;100.00
42859;BME280;28505;56.970;40.998;2023-12-04T08:12:10;99014.06;;;-8.72;100.00
42859;BME280;28505;56.970;40.998;2023-12-04T08:17:32;99014.19;;;-7.97;100.00
42859;BME280;28505;56.970;40.998;2023-12-04T08:22:54;99017.78;;;-8.05;100.00
42859;BME280;28505;56.970;40.998;2023-12-04T08:28:17;99020.41;;;-7.98;100.00
42859;BME280;28505;56.970;40.998;2023-12-04T08:33:39;99027.53;;;-8.34;100.00
42859;BME280;28505;56.970;40.998;2023-12-04T08:39:02;99044.66;;;-7.70;100.00
42859;BME280;28505;56.970;40.998;2023-12-04T08:44:25;99047.56;;;-8.48;100.00
42859;BME280;28505;56.970;40.998;2023-12-04T08:49:47;99062.16;;;-7.77;100.00
42859;BME280;28505;56.970;40.998;2023-12-04T08:55:10;99081.84;;;-8.29;100.00
42859;BME280;28505;56.970;40.998;2023-12-04T09:00:32;99077.63;;;-7.82;100.00
42859;BME280;28505;56.970;40.998;2023-12-04T09:05:55;99077.63;;;-7.75;100.00
42859;BME280;28505;56.970;40.998;2023-12-04T09:11:17;99087.34;;;-8.17;100.00
42859;BME280;28505;56.970;40.998;2023-12-04T09:16:44;99096.00;;;-7.62;100.00
42859;BME280;28505;56.970;40.998;2023-12-04T09:22:09;99107.31;;;-7.55;100.00
42859;BME280;28505;56.970;40.998;2023-12-04T09:27:39;99105.31;;;-8.01;100.00
42859;BME280;28505;56.970;40.998;2023-12-04T09:33:05;99120.25;;;-8.30;100.00
42859;BME280;28505;56.970;40.998;2023-12-04T09:38:28;99124.38;;;-7.66;100.00
42859;BME280;28505;56.970;40.998;2023-12-04T09:43:54;99123.94;;;-8.17;100.00
42859;BME280;28505;56.970;40.998;2023-12-04T09:49:17;99141.94;;;-8.01;100.00
42859;BME280;28505;56.970;40.998;2023-12-04T09:54:41;99162.44;;;-7.98;100.00
42859;BME280;28505;56.970;40.998;2023-12-04T10:00:04;99163.66;;;-8.01;100.00
42859;BME280;28505;56.970;40.998;2023-12-04T10:05:34;99171.94;;;-8.25;100.00
42859;BME280;28505;56.970;40.998;2023-12-04T10:10:56;99183.00;;;-7.95;100.00
42859;BME280;28505;56.970;40.998;2023-12-04T10:16:36;99185.44;;;-7.93;100.00
42859;BME280;28505;56.970;40.998;2023-12-04T10:21:59;99194.81;;;-8.06;100.00
42859;BME280;28505;56.970;40.998;2023-12-04T10:27:26;99202.84;;;-8.35;100.00
42859;BME280;28505;56.970;40.998;2023-12-04T10:32:48;99219.19;;;-8.55;100.00
42859;BME280;28505;56.970;40.998;2023-12-04T10:38:11;99226.41;;;-8.07;100.00
42859;BME280;28505;56.970;40.998;2023-12-04T10:43:36;99228.09;;;-8.21;100.00
42859;BME280;28505;56.970;40.998;2023-12-04T10:49:17;99227.16;;;-8.41;100.00
42859;BME280;28505;56.970;40.998;2023-12-04T10:54:43;99239.41;;;-8.42;100.00
42859;BME280;28505;56.970;40.998;2023-12-04T11:00:06;99245.81;;;-8.87;100.00
42859;BME280;28505;56.970;40.998;2023-12-04T11:05:31;99249.28;;;-8.37;100.00
42859;BME280;28505;56.970;40.998;2023-12-04T11:11:02;99253.81;;;-8.53;100.00
42859;BME280;28505;56.970;40.998;2023-12-04T11:16:48;99261.19;;;-8.78;100.00
42859;BME280;28505;56.970;40.998;2023-12-04T11:22:11;99253.59;;;-8.51;100.00
42859;BME280;28505;56.970;40.998;2023-12-04T11:27:36;99276.63;;;-8.83;100.00
42859;BME280;28505;56.970;40.998;2023-12-04T11:33:00;99296.09;;;-8.85;100.00
42859;BME280;28505;56.970;40.998;2023-12-04T11:38:22;99314.66;;;-8.95;100.00
42859;BME280;28505;56.970;40.998;2023-12-04T11:43:46;99319.53;;;-8.70;100.00
42859;BME280;28505;56.970;40.998;2023-12-04T11:49:28;99329.69;;;-8.97;100.00
42859;BME280;28505;56.970;40.998;2023-12-04T11:54:58;99340.31;;;-8.99;100.00
42859;BME280;28505;56.970;40.998;2023-12-04T12:00:23;99356.59;;;-8.97;100.00
42859;BME280;28505;56.970;40.998;2023-12-04T12:05:48;99360.47;;;-8.78;100.00
42859;BME280;28505;56.970;40.998;2023-12-04T12:11:12;99371.34;;;-8.74;100.00
42859;BME280;28505;56.970;40.998;2023-12-04T12:16:35;99384.53;;;-8.82;100.00
42859;BME280;28505;56.970;40.998;2023-12-04T12:21:57;99388.03;;;-9.20;100.00
42859;BME280;28505;56.970;40.998;2023-12-04T12:27:19;99398.31;;;-8.88;100.00
42859;BME280;28505;56.970;40.998;2023-12-04T12:32:42;99386.16;;;-9.11;100.00
42859;BME280;28505;56.970;40.998;2023-12-04T12:38:05;99403.44;;;-9.10;100.00
42859;BME280;28505;56.970;40.998;2023-12-04T12:43:27;99401.66;;;-8.94;100.00
42859;BME280;28505;56.970;40.998;2023-12-04T12:48:51;99406.69;;;-9.08;100.00
42859;BME280;28505;56.970;40.998;2023-12-04T12:54:13;99422.91;;;-8.98;100.00
42859;BME280;28505;56.970;40.998;2023-12-04T12:59:39;99425.97;;;-9.09;100.00
42859;BME280;28505;56.970;40.998;2023-12-04T13:05:03;99427.13;;;-9.11;100.00
42859;BME280;28505;56.970;40.998;2023-12-04T13:10:26;99432.50;;;-9.28;100.00
42859;BME280;28505;56.970;40.998;2023-12-04T13:15:51;99433.06;;;-9.17;100.00
42859;BME280;28505;56.970;40.998;2023-12-04T13:21:13;99454.69;;;-9.09;100.00
42859;BME280;28505;56.970;40.998;2023-12-04T13:27:03;99458.34;;;-9.18;100.00
42859;BME280;28505;56.970;40.998;2023-12-04T13:32:27;99458.56;;;-9.43;100.00
42859;BME280;28505;56.970;40.998;2023-12-04T13:37:50;99473.81;;;-9.31;100.00
42859;BME280;28505;56.970;40.998;2023-12-04T13:43:17;99485.66;;;-9.44;100.00
42859;BME280;28505;56.970;40.998;2023-12-04T13:48:59;99486.53;;;-9.51;100.00
42859;BME280;28505;56.970;40.998;2023-12-04T13:54:21;99491.25;;;-9.09;100.00
42859;BME280;28505;56.970;40.998;2023-12-04T13:59:54;99489.03;;;-9.35;100.00
42859;BME280;28505;56.970;40.998;2023-12-04T14:05:22;99498.84;;;-9.22;100.00
42859;BME280;28505;56.970;40.998;2023-12-04T14:10:44;99495.88;;;-9.57;100.00
42859;BME280;28505;56.970;40.998;2023-12-04T14:16:09;99508.63;;;-9.62;100.00
42859;BME280;28505;56.970;40.998;2023-12-04T14:21:32;99507.19;;;-9.41;100.00
42859;BME280;28505;56.970;40.998;2023-12-04T14:26:54;99520.38;;;-9.66;100.00
42859;BME280;28505;56.970;40.998;2023-12-04T14:32:17;99527.53;;;-9.60;100.00
42859;BME280;28505;56.970;40.998;2023-12-04T14:37:45;99539.63;;;-9.98;100.00
42859;BME280;28505;56.970;40.998;2023-12-04T14:43:11;99550.53;;;-9.63;100.00
42859;BME280;28505;56.970;40.998;2023-12-04T14:48:37;99559.09;;;-9.78;100.00
42859;BME280;28505;56.970;40.998;2023-12-04T14:54:00;99557.91;;;-10.29;100.00
42859;BME280;28505;56.970;40.998;2023-12-04T14:59:37;99560.75;;;-9.85;100.00
42859;BME280;28505;56.970;40.998;2023-12-04T15:05:25;99566.91;;;-9.78;100.00
42859;BME280;28505;56.970;40.998;2023-12-04T15:11:06;99570.84;;;-10.21;100.00
42859;BME280;28505;56.970;40.998;2023-12-04T15:16:34;99578.81;;;-10.15;100.00
42859;BME280;28505;56.970;40.998;2023-12-04T15:22:04;99580.00;;;-10.25;100.00
42859;BME280;28505;56.970;40.998;2023-12-04T15:27:27;99595.59;;;-10.09;100.00
42859;BME280;28505;56.970;40.998;2023-12-04T15:32:51;99601.47;;;-10.15;100.00
42859;BME280;28505;56.970;40.998;2023-12-04T15:38:14;99597.81;;;-9.98;100.00
42859;BME280;28505;56.970;40.998;2023-12-04T15:43:36;99597.94;;;-9.91;100.00
42859;BME280;28505;56.970;40.998;2023-12-04T15:49:00;99602.69;;;-10.34;100.00
42859;BME280;28505;56.970;40.998;2023-12-04T15:54:52;99615.16;;;-10.13;100.00
42859;BME280;28505;56.970;40.998;2023-12-04T16:00:15;99609.13;;;-10.14;100.00
42859;BME280;28505;56.970;40.998;2023-12-04T16:05:39;99613.25;;;-10.27;100.00
42859;BME280;28505;56.970;40.998;2023-12-04T16:11:03;99616.03;;;-10.29;100.00
42859;BME280;28505;56.970;40.998;2023-12-04T16:16:27;99629.47;;;-10.65;100.00
42859;BME280;28505;56.970;40.998;2023-12-04T16:21:51;99632.88;;;-10.56;100.00
42859;BME280;28505;56.970;40.998;2023-12-04T16:27:16;99639.06;;;-10.81;100.00
42859;BME280;28505;56.970;40.998;2023-12-04T16:32:39;99641.69;;;-10.65;100.00
42859;BME280;28505;56.970;40.998;2023-12-04T16:38:01;99657.78;;;-10.78;100.00
42859;BME280;28505;56.970;40.998;2023-12-04T16:43:24;99665.25;;;-11.07;100.00
42859;BME280;28505;56.970;40.998;2023-12-04T16:48:46;99658.56;;;-11.02;100.00
42859;BME280;28505;56.970;40.998;2023-12-04T16:54:09;99655.31;;;-10.63;100.00
42859;BME280;28505;56.970;40.998;2023-12-04T16:59:31;99675.50;;;-11.06;100.00
42859;BME280;28505;56.970;40.998;2023-12-04T17:04:53;99672.13;;;-10.66;100.00
42859;BME280;28505;56.970;40.998;2023-12-04T17:10:16;99683.34;;;-10.65;100.00
42859;BME280;28505;56.970;40.998;2023-12-04T17:15:39;99688.22;;;-10.70;100.00
42859;BME280;28505;56.970;40.998;2023-12-04T17:21:05;99704.50;;;-10.85;100.00
42859;BME280;28505;56.970;40.998;2023-12-04T17:26:27;99702.69;;;-10.59;100.00
42859;BME280;28505;56.970;40.998;2023-12-04T17:31:50;99706.41;;;-11.03;100.00
42859;BME280;28505;56.970;40.998;2023-12-04T17:37:12;99693.44;;;-10.46;100.00
42859;BME280;28505;56.970;40.998;2023-12-04T17:42:34;99710.47;;;-10.19;100.00
42859;BME280;28505;56.970;40.998;2023-12-04T17:47:56;99706.78;;;-10.57;100.00
42859;BME280;28505;56.970;40.998;2023-12-04T17:53:18;99715.22;;;-10.22;100.00
42859;BME280;28505;56.970;40.998;2023-12-04T17:58:40;99721.59;;;-10.74;100.00
42859;BME280;28505;56.970;40.998;2023-12-04T18:04:02;99718.13;;;-10.09;100.00
42859;BME280;28505;56.970;40.998;2023-12-04T18:09:25;99723.31;;;-10.17;100.00
42859;BME280;28505;56.970;40.998;2023-12-04T18:14:49;99722.81;;;-10.04;100.00
42859;BME280;28505;56.970;40.998;2023-12-04T18:20:14;99733.31;;;-10.53;100.00
42859;BME280;28505;56.970;40.998;2023-12-04T18:25:40;99737.50;;;-10.11;100.00
42859;BME280;28505;56.970;40.998;2023-12-04T18:31:04;99752.88;;;-10.33;100.00
42859;BME280;28505;56.970;40.998;2023-12-04T18:36:27;99763.09;;;-10.15;100.00
42859;BME280;28505;56.970;40.998;2023-12-04T18:41:57;99757.69;;;-9.81;100.00
42859;BME280;28505;56.970;40.998;2023-12-04T18:47:21;99763.44;;;-10.51;100.00
42859;BME280;28505;56.970;40.998;2023-12-04T18:52:45;99770.41;;;-9.86;100.00
42859;BME280;28505;56.970;40.998;2023-12-04T18:58:07;99784.59;;;-9.97;100.00
42859;BME280;28505;56.970;40.998;2023-12-04T19:03:35;99796.34;;;-10.25;100.00
42859;BME280;28505;56.970;40.998;2023-12-04T19:08:57;99793.44;;;-10.39;100.00
42859;BME280;28505;56.970;40.998;2023-12-04T19:14:20;99818.19;;;-10.34;100.00
42859;BME280;28505;56.970;40.998;2023-12-04T19:19:42;99812.78;;;-10.66;100.00
42859;BME280;28505;56.970;40.998;2023-12-04T19:25:05;99826.94;;;-10.60;100.00
42859;BME280;28505;56.970;40.998;2023-12-04T19:30:27;99822.63;;;-10.86;100.00
42859;BME280;28505;56.970;40.998;2023-12-04T19:35:55;99834.16;;;-10.29;100.00
42859;BME280;28505;56.970;40.998;2023-12-04T19:41:17;99834.06;;;-10.70;100.00
42859;BME280;28505;56.970;40.998;2023-12-04T19:46:40;99831.22;;;-10.43;100.00
42859;BME280;28505;56.970;40.998;2023-12-04T19:52:02;99836.44;;;-9.94;100.00
42859;BME280;28505;56.970;40.998;2023-12-04T19:57:25;99842.13;;;-10.31;100.00
42859;BME280;28505;56.970;40.998;2023-12-04T20:02:48;99857.75;;;-10.23;100.00
42859;BME280;28505;56.970;40.998;2023-12-04T20:08:10;99858.50;;;-10.63;100.00
42859;BME280;28505;56.970;40.998;2023-12-04T20:13:32;99850.72;;;-10.47;100.00
42859;BME280;28505;56.970;40.998;2023-12-04T20:18:58;99839.22;;;-10.95;100.00
42859;BME280;28505;56.970;40.998;2023-12-04T20:24:21;99861.63;;;-10.43;100.00
42859;BME280;28505;56.970;40.998;2023-12-04T20:29:43;99869.97;;;-10.23;100.00
42859;BME280;28505;56.970;40.998;2023-12-04T20:35:06;99870.16;;;-10.33;100.00
42859;BME280;28505;56.970;40.998;2023-12-04T20:40:28;99873.53;;;-10.49;100.00
42859;BME280;28505;56.970;40.998;2023-12-04T20:45:50;99886.25;;;-10.46;100.00
42859;BME280;28505;56.970;40.998;2023-12-04T20:51:13;99882.03;;;-10.39;100.00
42859;BME280;28505;56.970;40.998;2023-12-04T20:56:35;99888.59;;;-9.94;100.00
42859;BME280;28505;56.970;40.998;2023-12-04T21:01:57;99888.69;;;-10.44;100.00
42859;BME280;28505;56.970;40.998;2023-12-04T21:07:20;99895.88;;;-10.22;100.00
42859;BME280;28505;56.970;40.998;2023-12-04T21:12:45;99892.78;;;-10.42;100.00
42859;BME280;28505;56.970;40.998;2023-12-04T21:18:07;99902.53;;;-10.86;100.00
42859;BME280;28505;56.970;40.998;2023-12-04T21:23:30;99910.84;;;-10.82;100.00
42859;BME280;28505;56.970;40.998;2023-12-04T21:28:52;99915.50;;;-10.60;100.00
42859;BME280;28505;56.970;40.998;2023-12-04T21:34:14;99921.94;;;-11.15;100.00
42859;BME280;28505;56.970;40.998;2023-12-04T21:39:40;99923.06;;;-11.17;100.00
42859;BME280;28505;56.970;40.998;2023-12-04T21:45:04;99931.19;;;-11.12;100.00
42859;BME280;28505;56.970;40.998;2023-12-04T21:50:27;99937.91;;;-10.75;100.00
42859;BME280;28505;56.970;40.998;2023-12-04T21:55:49;99941.78;;;-10.37;100.00
42859;BME280;28505;56.970;40.998;2023-12-04T22:01:11;99945.75;;;-10.67;100.00
42859;BME280;28505;56.970;40.998;2023-12-04T22:06:33;99941.22;;;-10.57;100.00
42859;BME280;28505;56.970;40.998;2023-12-04T22:11:56;99947.25;;;-10.56;100.00
42859;BME280;28505;56.970;40.998;2023-12-04T22:17:18;99949.16;;;-10.75;100.00
42859;BME280;28505;56.970;40.998;2023-12-04T22:22:41;99963.69;;;-10.64;100.00
42859;BME280;28505;56.970;40.998;2023-12-04T22:28:03;99955.16;;;-10.74;100.00
42859;BME280;28505;56.970;40.998;2023-12-04T22:33:26;99963.47;;;-10.20;100.00
42859;BME280;28505;56.970;40.998;2023-12-04T22:38:48;99968.19;;;-10.74;100.00
42859;BME280;28505;56.970;40.998;2023-12-04T22:44:13;99976.72;;;-10.90;100.00
42859;BME280;28505;56.970;40.998;2023-12-04T22:49:36;99974.06;;;-10.72;100.00
42859;BME280;28505;56.970;40.998;2023-12-04T22:54:58;99975.63;;;-11.14;100.00
42859;BME280;28505;56.970;40.998;2023-12-04T23:00:20;99980.66;;;-11.12;100.00
42859;BME280;28505;56.970;40.998;2023-12-04T23:05:47;99989.06;;;-10.66;100.00
42859;BME280;28505;56.970;40.998;2023-12-04T23:11:10;99989.69;;;-10.72;100.00
42859;BME280;28505;56.970;40.998;2023-12-04T23:16:41;100002.09;;;-10.32;100.00
42859;BME280;28505;56.970;40.998;2023-12-04T23:22:03;99996.06;;;-11.19;100.00
42859;BME280;28505;56.970;40.998;2023-12-04T23:27:25;99991.72;;;-10.58;100.00
42859;BME280;28505;56.970;40.998;2023-12-04T23:32:57;100000.47;;;-10.33;100.00
42859;BME280;28505;56.970;40.998;2023-12-04T23:38:20;99999.69;;;-11.38;100.00
42859;BME280;28505;56.970;40.998;2023-12-04T23:43:42;99996.53;;;-10.37;100.00
42859;BME280;28505;56.970;40.998;2023-12-04T23:49:06;99998.16;;;-10.36;100.00
42859;BME280;28505;56.970;40.998;2023-12-04T23:54:28;100001.63;;;-10.62;100.00
42859;BME280;28505;56.970;40.998;2023-12-04T23:59:50;100004.88;;;-10.17;100.00
